Time;durP1;ratioP1;P1;durP2;ratioP2;P2;SDS_P1;SDS_P2;PMS_P1;PMS_P2;Temp;Humidity;BMP_temperature;BMP_pressure;BME280_temperature;BME280_humidity;BME280_pressure;Samples;Min_cycle;Max_cycle;Signal;HPM_P1;HPM_P2
2021/04/23 00:02:14;;;;;;;91.20;35.40;;;-0.60;99.90;;;;;;5073471;28;20012;-77
2021/04/23 00:04:39;;;;;;;90.55;34.33;;;-0.60;99.90;;;;;;5074801;28;20123;-77
2021/04/23 00:07:05;;;;;;;88.22;33.80;;;-0.60;99.90;;;;;;5073536;28;20065;-77
2021/04/23 00:09:34;;;;;;;77.85;32.80;;;-0.50;99.60;;;;;;5074728;28;20025;-78
2021/04/23 00:12:08;;;;;;;95.95;33.80;;;-0.50;98.50;;;;;;5073329;28;20116;-77
2021/04/23 00:14:48;;;;;;;68.75;30.58;;;-0.60;98.00;;;;;;5073464;28;20024;-77
2021/04/23 00:17:14;;;;;;;62.00;28.92;;;-0.60;98.70;;;;;;5073276;28;20017;-77
2021/04/23 00:19:40;;;;;;;63.15;25.52;;;-0.70;99.90;;;;;;5072985;28;20485;-77
2021/04/23 00:22:07;;;;;;;67.80;28.85;;;-0.60;99.80;;;;;;5074365;28;20024;-77
2021/04/23 00:24:33;;;;;;;66.35;27.33;;;-0.60;99.70;;;;;;5074118;28;20040;-77
2021/04/23 00:26:59;;;;;;;78.30;29.73;;;-0.70;98.70;;;;;;5056468;28;20082;-77
2021/04/23 00:29:25;;;;;;;79.55;30.08;;;-0.70;99.10;;;;;;5074343;28;20104;-77
2021/04/23 00:34:37;;;;;;;79.13;29.88;;;-0.80;99.90;;;;;;5074224;28;20071;-77
2021/04/23 00:37:04;;;;;;;72.50;29.17;;;-0.70;99.40;;;;;;5072738;28;20481;-78
2021/04/23 00:39:29;;;;;;;77.22;30.27;;;-0.80;99.10;;;;;;5072815;28;20027;-77
2021/04/23 00:41:55;;;;;;;67.70;28.15;;;-0.80;98.70;;;;;;5074067;28;20024;-78
2021/04/23 00:44:21;;;;;;;67.38;28.27;;;-0.80;99.80;;;;;;5073914;28;20036;-77
2021/04/23 00:46:47;;;;;;;59.50;26.30;;;-0.80;99.90;;;;;;5073933;28;20032;-77
2021/04/23 00:49:12;;;;;;;57.95;24.23;;;-0.90;99.40;;;;;;5072342;28;20040;-77
2021/04/23 00:51:42;;;;;;;50.92;21.38;;;-0.90;99.50;;;;;;5072205;28;20506;-77
2021/04/23 00:54:08;;;;;;;44.75;21.65;;;-1.00;99.90;;;;;;5072593;28;20017;-77
2021/04/23 00:56:37;;;;;;;52.53;21.55;;;-1.00;99.90;;;;;;5073813;28;20109;-76
2021/04/23 00:59:04;;;;;;;51.90;22.58;;;-1.10;99.90;;;;;;5073667;28;20035;-76
2021/04/23 01:01:36;;;;;;;51.83;22.15;;;-1.10;99.90;;;;;;5073907;28;20099;-76
2021/04/23 01:04:05;;;;;;;50.93;21.43;;;-1.10;99.90;;;;;;5073714;28;20071;-76
2021/04/23 01:06:34;;;;;;;52.67;21.05;;;-1.10;99.90;;;;;;5073521;28;20019;-76
2021/04/23 01:09:10;;;;;;;45.63;19.42;;;-1.20;99.90;;;;;;5073391;28;20040;-76
2021/04/23 01:11:36;;;;;;;54.85;20.90;;;-1.20;99.90;;;;;;5072080;28;20028;-76
2021/04/23 01:14:03;;;;;;;49.45;21.45;;;-1.20;99.90;;;;;;5073238;28;20091;-76
2021/04/23 01:16:29;;;;;;;52.45;21.85;;;-1.30;99.90;;;;;;5073550;28;20103;-76
2021/04/23 01:18:55;;;;;;;55.00;25.17;;;-1.30;99.90;;;;;;5073404;28;20456;-76
2021/04/23 01:21:23;;;;;;;65.07;27.50;;;-1.30;99.90;;;;;;5072142;28;20026;-76
2021/04/23 01:23:51;;;;;;;63.47;26.48;;;-1.20;99.90;;;;;;5073187;28;20025;-77
2021/04/23 01:26:19;;;;;;;64.78;28.20;;;-1.30;99.90;;;;;;5073223;28;20103;-77
2021/04/23 01:28:47;;;;;;;67.32;27.63;;;-1.30;99.90;;;;;;5073239;28;20068;-77
2021/04/23 01:31:15;;;;;;;61.47;24.60;;;-1.30;99.90;;;;;;5071636;28;20536;-77
2021/04/23 01:33:44;;;;;;;57.75;23.25;;;-1.30;99.90;;;;;;5071917;28;20021;-77
2021/04/23 01:36:14;;;;;;;62.95;23.55;;;-1.30;99.90;;;;;;5071770;28;20438;-77
2021/04/23 01:38:43;;;;;;;53.50;21.70;;;-1.30;99.90;;;;;;5073046;28;20082;-77
2021/04/23 01:41:09;;;;;;;49.63;23.08;;;-1.40;99.90;;;;;;5073003;28;20017;-77
2021/04/23 01:43:35;;;;;;;55.28;23.23;;;-1.40;99.90;;;;;;5071298;28;20074;-76
2021/04/23 01:46:03;;;;;;;60.65;24.92;;;-1.50;99.90;;;;;;5071722;28;20031;-77
2021/04/23 01:48:29;;;;;;;63.70;25.00;;;-1.50;99.90;;;;;;5072499;28;20035;-76
2021/04/23 01:50:55;;;;;;;52.70;22.83;;;-1.50;99.90;;;;;;5072917;28;20393;-76
2021/04/23 01:53:21;;;;;;;60.33;23.92;;;-1.50;99.90;;;;;;5071566;28;20040;-76
2021/04/23 01:55:47;;;;;;;61.55;24.70;;;-1.50;99.20;;;;;;5059510;28;20429;-76
2021/04/23 01:58:13;;;;;;;76.72;29.42;;;-1.50;99.70;;;;;;5052534;28;20033;-76
2021/04/23 02:00:46;;;;;;;70.47;27.95;;;-1.50;99.70;;;;;;5052783;28;20067;-76
2021/04/23 02:03:12;;;;;;;73.55;28.83;;;-1.50;99.90;;;;;;5051539;28;20056;-76
2021/04/23 02:05:39;;;;;;;74.15;30.15;;;-1.50;99.90;;;;;;5051303;28;20033;-76
2021/04/23 02:08:06;;;;;;;58.35;23.80;;;-1.60;99.90;;;;;;5052680;28;20021;-76
2021/04/23 02:10:45;;;;;;;53.95;24.52;;;-1.60;99.90;;;;;;5052570;28;20029;-76
2021/04/23 02:13:12;;;;;;;53.15;23.25;;;-1.60;99.90;;;;;;5065928;28;20108;-76
2021/04/23 02:15:38;;;;;;;57.42;23.30;;;-1.60;99.90;;;;;;5072636;28;20474;-77
2021/04/23 02:18:04;;;;;;;50.10;25.98;;;-1.60;99.90;;;;;;5072585;28;20107;-76
2021/04/23 02:20:33;;;;;;;53.97;23.58;;;-1.70;99.90;;;;;;5071642;28;20090;-76
2021/04/23 02:23:00;;;;;;;49.05;22.73;;;-1.70;99.90;;;;;;5072437;28;20032;-76
2021/04/23 02:25:27;;;;;;;46.28;22.95;;;-1.70;99.90;;;;;;5072650;28;20086;-76
2021/04/23 02:27:53;;;;;;;60.05;23.38;;;-1.70;99.90;;;;;;5070917;28;20016;-76
2021/04/23 02:30:26;;;;;;;74.20;27.38;;;-1.80;99.90;;;;;;5072486;28;20440;-76
2021/04/23 02:32:52;;;;;;;55.15;22.17;;;-1.80;99.90;;;;;;5071036;28;20101;-76
2021/04/23 02:35:19;;;;;;;58.13;24.33;;;-1.90;99.90;;;;;;5072507;28;20478;-76
2021/04/23 02:37:45;;;;;;;57.72;23.40;;;-1.90;99.90;;;;;;5072028;28;20478;-76
2021/04/23 02:40:15;;;;;;;56.85;26.20;;;-1.90;99.90;;;;;;5071082;28;20028;-77
2021/04/23 02:42:41;;;;;;;59.13;23.90;;;-1.90;99.90;;;;;;5069403;28;20497;-76
2021/04/23 02:45:10;;;;;;;60.80;22.33;;;-1.90;99.90;;;;;;5072038;28;20036;-76
2021/04/23 02:47:37;;;;;;;53.97;20.55;;;-1.90;99.90;;;;;;5070843;28;20047;-77
2021/04/23 02:50:05;;;;;;;50.95;21.05;;;-1.90;99.90;;;;;;5072253;28;20029;-76
2021/04/23 02:52:31;;;;;;;43.50;19.80;;;-2.00;99.90;;;;;;5072239;28;20074;-76
2021/04/23 02:54:57;;;;;;;59.00;24.00;;;-1.90;99.90;;;;;;5070611;28;20028;-77
2021/04/23 02:57:22;;;;;;;50.75;19.88;;;-1.90;99.90;;;;;;5072028;28;20024;-76
2021/04/23 02:59:48;;;;;;;50.13;22.33;;;-2.00;99.90;;;;;;5068814;28;20024;-76
2021/04/23 03:02:14;;;;;;;56.17;23.52;;;-2.00;99.90;;;;;;5068774;28;20021;-76
2021/04/23 03:04:39;;;;;;;53.50;21.45;;;-2.00;99.90;;;;;;5068403;28;20032;-76
2021/04/23 03:07:05;;;;;;;43.75;20.05;;;-2.00;99.90;;;;;;5068506;28;20031;-76
2021/04/23 03:09:31;;;;;;;54.55;21.02;;;-2.00;99.90;;;;;;5070049;28;20064;-76
2021/04/23 03:11:56;;;;;;;48.97;21.48;;;-2.10;99.90;;;;;;5068338;28;20077;-76
2021/04/23 03:14:22;;;;;;;61.25;23.35;;;-2.10;99.90;;;;;;5070098;28;20017;-77
2021/04/23 03:16:48;;;;;;;46.97;21.05;;;-2.10;99.90;;;;;;5071965;28;20025;-76
2021/04/23 03:19:18;;;;;;;58.15;20.20;;;-2.10;99.90;;;;;;5072051;28;20029;-76
2021/04/23 03:21:45;;;;;;;57.03;21.05;;;-2.20;99.90;;;;;;5071978;28;20363;-76
2021/04/23 03:24:12;;;;;;;52.60;23.45;;;-2.20;99.90;;;;;;5071840;28;20393;-76
2021/04/23 03:26:38;;;;;;;51.70;23.55;;;-2.30;99.90;;;;;;5070588;28;20017;-76
2021/04/23 03:29:06;;;;;;;59.58;22.88;;;-2.30;99.90;;;;;;5071949;28;20056;-76
2021/04/23 03:31:33;;;;;;;46.63;21.23;;;-2.30;99.90;;;;;;5072640;28;20401;-76
2021/04/23 03:33:59;;;;;;;54.22;20.67;;;-2.30;99.90;;;;;;5066145;28;20352;-76
2021/04/23 03:36:25;;;;;;;51.83;20.88;;;-2.30;99.90;;;;;;5054168;28;20151;-76
2021/04/23 03:38:51;;;;;;;50.15;21.02;;;-2.30;99.90;;;;;;5053895;28;20066;-76
2021/04/23 03:41:32;;;;;;;54.40;22.10;;;-2.30;99.90;;;;;;5065242;28;20091;-76
2021/04/23 03:43:58;;;;;;;59.63;24.55;;;-2.30;99.90;;;;;;5074203;28;20043;-76
2021/04/23 03:46:24;;;;;;;58.50;23.50;;;-2.30;99.90;;;;;;5074091;28;20425;-76
2021/04/23 03:48:50;;;;;;;63.80;23.23;;;-2.30;99.90;;;;;;5074007;28;20032;-76
2021/04/23 03:51:18;;;;;;;54.83;22.05;;;-2.30;99.90;;;;;;5073991;28;20028;-76
2021/04/23 03:53:46;;;;;;;69.47;22.98;;;-2.30;99.90;;;;;;5074884;28;20025;-76
2021/04/23 03:56:13;;;;;;;54.05;21.10;;;-2.30;99.90;;;;;;5073804;28;20042;-76
2021/04/23 03:58:40;;;;;;;61.53;23.60;;;-2.30;99.90;;;;;;5073901;28;20429;-76
2021/04/23 04:01:12;;;;;;;58.72;23.90;;;-2.20;99.90;;;;;;5074778;28;20035;-76
2021/04/23 04:03:38;;;;;;;73.30;28.58;;;-2.20;99.90;;;;;;5054706;28;20017;-76
2021/04/23 04:06:05;;;;;;;42.28;18.05;;;-2.20;99.90;;;;;;5053570;28;20025;-77
2021/04/23 04:08:31;;;;;;;83.30;28.98;;;-2.20;99.90;;;;;;5054627;28;20056;-76
2021/04/23 04:10:56;;;;;;;118.32;43.50;;;-2.10;99.90;;;;;;5054802;28;20056;-77
2021/04/23 04:13:22;;;;;;;66.15;25.92;;;-2.00;99.90;;;;;;5053187;28;20021;-76
2021/04/23 04:15:48;;;;;;;53.45;22.17;;;-1.90;99.90;;;;;;5054552;28;20052;-76
2021/04/23 04:18:16;;;;;;;48.63;18.75;;;-1.80;99.90;;;;;;5054528;28;20504;-75
2021/04/23 04:20:48;;;;;;;46.25;18.80;;;-1.70;99.90;;;;;;5054520;28;20080;-77
2021/04/23 04:23:17;;;;;;;60.33;25.17;;;-1.60;99.90;;;;;;5054375;28;20155;-76
2021/04/23 04:25:46;;;;;;;56.83;25.48;;;-1.40;99.90;;;;;;5053018;28;20074;-76
2021/04/23 04:28:13;;;;;;;90.25;39.72;;;-1.30;99.90;;;;;;5052980;28;20029;-76
2021/04/23 04:30:39;;;;;;;129.25;44.95;;;-1.10;99.90;;;;;;5054325;28;20051;-76
2021/04/23 04:33:07;;;;;;;80.03;32.22;;;-1.00;99.90;;;;;;5069958;28;20111;-76
2021/04/23 04:35:33;;;;;;;66.07;26.10;;;-0.90;99.90;;;;;;5072906;28;20025;-76
2021/04/23 04:37:59;;;;;;;69.88;25.55;;;-0.80;99.90;;;;;;5072802;28;20027;-76
2021/04/23 04:40:27;;;;;;;38.97;19.70;;;-0.80;99.90;;;;;;5074095;28;20024;-76
2021/04/23 04:42:55;;;;;;;84.70;29.75;;;-0.70;99.90;;;;;;5073094;28;20115;-76
2021/04/23 04:45:24;;;;;;;90.10;29.50;;;-0.60;99.90;;;;;;5072351;28;20371;-76
2021/04/23 04:47:50;;;;;;;85.05;33.03;;;-0.50;99.90;;;;;;5072465;28;20430;-77
2021/04/23 04:50:28;;;;;;;97.18;33.90;;;-0.50;99.90;;;;;;5072622;28;20063;-76
2021/04/23 04:52:55;;;;;;;89.15;33.38;;;-0.40;99.90;;;;;;5072632;28;20032;-76
2021/04/23 04:55:27;;;;;;;79.15;29.58;;;-0.30;99.90;;;;;;5073878;28;20020;-77
2021/04/23 04:57:53;;;;;;;82.38;32.65;;;-0.20;99.90;;;;;;5072289;28;20119;-77
2021/04/23 05:00:19;;;;;;;65.78;29.80;;;0.00;99.90;;;;;;5073759;28;20517;-76
2021/04/23 05:02:45;;;;;;;57.83;25.50;;;0.10;99.90;;;;;;5073424;28;20085;-77
2021/04/23 05:05:12;;;;;;;59.17;23.27;;;0.30;99.90;;;;;;5072257;28;20056;-78
2021/04/23 05:07:38;;;;;;;44.13;22.15;;;0.30;99.90;;;;;;5066992;28;20024;-77
2021/04/23 05:10:06;;;;;;;50.95;21.00;;;0.40;99.90;;;;;;5072441;28;20029;-78
2021/04/23 05:12:31;;;;;;;58.35;24.33;;;0.40;99.90;;;;;;5073381;28;20367;-78
2021/04/23 05:14:57;;;;;;;54.15;24.92;;;0.40;99.90;;;;;;5072198;28;20031;-77
2021/04/23 05:17:23;;;;;;;51.13;24.25;;;0.50;99.90;;;;;;5071896;28;20033;-77
2021/04/23 05:19:49;;;;;;;48.45;22.85;;;0.50;99.90;;;;;;5072802;28;20032;-78
2021/04/23 05:22:14;;;;;;;50.20;24.08;;;0.60;99.90;;;;;;5073159;28;20027;-78
2021/04/23 05:24:40;;;;;;;44.22;22.27;;;0.80;99.90;;;;;;5071931;28;20394;-78
2021/04/23 05:27:05;;;;;;;48.42;24.13;;;1.00;99.90;;;;;;5071795;28;20031;-78
2021/04/23 05:29:31;;;;;;;51.45;22.60;;;1.20;99.90;;;;;;5073751;28;20021;-78
2021/04/23 05:31:57;;;;;;;55.28;26.90;;;1.30;99.90;;;;;;5067521;28;20021;-78
2021/04/23 05:34:23;;;;;;;51.95;25.10;;;1.50;99.90;;;;;;5071091;28;20043;-78
2021/04/23 05:36:48;;;;;;;57.03;26.25;;;1.80;99.90;;;;;;5072692;28;20543;-77
2021/04/23 05:39:14;;;;;;;51.22;20.67;;;2.00;99.90;;;;;;5069668;28;20024;-77
2021/04/23 05:41:41;;;;;;;44.80;22.13;;;2.10;99.90;;;;;;5070921;28;20024;-78
2021/04/23 05:44:10;;;;;;;41.40;19.77;;;2.30;99.90;;;;;;5071370;28;20020;-79
2021/04/23 05:46:36;;;;;;;38.50;20.80;;;2.40;99.90;;;;;;5071491;28;20028;-80
2021/04/23 05:49:04;;;;;;;47.47;19.42;;;2.60;99.90;;;;;;5071743;28;20055;-78
2021/04/23 05:51:30;;;;;;;38.30;17.10;;;2.80;99.90;;;;;;5068266;28;20032;-78
2021/04/23 05:53:56;;;;;;;34.67;16.83;;;2.90;99.90;;;;;;5055264;28;20024;-75
2021/04/23 05:56:22;;;;;;;31.90;16.33;;;3.00;99.90;;;;;;5071926;28;20058;-76
2021/04/23 05:58:48;;;;;;;30.25;15.48;;;3.10;99.90;;;;;;5069950;28;20590;-75
2021/04/23 06:01:15;;;;;;;28.48;12.63;;;3.30;99.90;;;;;;5068002;28;20062;-75
2021/04/23 06:03:40;;;;;;;23.50;12.82;;;3.40;99.90;;;;;;5063860;28;20115;-75
2021/04/23 06:06:06;;;;;;;24.80;11.55;;;3.50;99.90;;;;;;5069959;28;20538;-76
2021/04/23 06:08:32;;;;;;;24.02;12.18;;;3.60;99.90;;;;;;5071323;28;20017;-75
2021/04/23 06:10:57;;;;;;;22.92;10.85;;;3.60;99.90;;;;;;5070261;28;20021;-79
2021/04/23 06:13:23;;;;;;;24.73;11.57;;;3.60;99.90;;;;;;5069975;28;20378;-73
2021/04/23 06:15:49;;;;;;;21.95;12.98;;;3.60;99.90;;;;;;5056360;28;20024;-74
2021/04/23 06:18:15;;;;;;;16.85;9.32;;;3.50;99.90;;;;;;5069883;28;20027;-73
2021/04/23 06:20:43;;;;;;;26.30;11.05;;;3.50;99.90;;;;;;5071327;28;20057;-73
2021/04/23 06:23:09;;;;;;;19.80;9.95;;;3.40;99.90;;;;;;5068975;28;20482;-73
2021/04/23 06:25:35;;;;;;;17.55;10.30;;;3.40;99.90;;;;;;5068591;28;20067;-74
2021/04/23 06:28:03;;;;;;;14.95;8.70;;;3.50;99.90;;;;;;5068660;28;20495;-74
2021/04/23 06:30:32;;;;;;;27.13;11.48;;;3.50;99.90;;;;;;5063624;28;20012;-74
2021/04/23 06:33:00;;;;;;;19.45;10.48;;;3.50;99.90;;;;;;5067731;28;20398;-74
2021/04/23 06:35:29;;;;;;;22.30;9.43;;;3.60;99.90;;;;;;5068689;28;20021;-74
2021/04/23 06:37:56;;;;;;;20.42;9.30;;;3.70;99.90;;;;;;5069589;28;20489;-73
2021/04/23 06:40:22;;;;;;;20.67;8.07;;;3.70;99.90;;;;;;5071777;28;20029;-74
2021/04/23 06:42:47;;;;;;;17.45;8.57;;;3.80;99.90;;;;;;5070579;28;20020;-74
2021/04/23 06:45:16;;;;;;;14.98;7.18;;;3.80;99.90;;;;;;5069217;28;20073;-74
2021/04/23 06:47:43;;;;;;;22.95;10.50;;;3.90;99.90;;;;;;5069209;28;20032;-74
2021/04/23 06:50:10;;;;;;;19.70;8.27;;;4.10;99.90;;;;;;5070854;28;20040;-74
2021/04/23 06:52:37;;;;;;;30.00;12.88;;;4.30;99.90;;;;;;5071527;28;20021;-74
2021/04/23 06:55:04;;;;;;;24.55;12.95;;;4.40;99.90;;;;;;5071903;28;20026;-74
2021/04/23 06:57:29;;;;;;;20.92;10.07;;;4.40;99.90;;;;;;5071965;28;20028;-74
2021/04/23 06:59:55;;;;;;;29.73;15.10;;;4.50;99.90;;;;;;5072134;28;20020;-74
2021/04/23 07:02:21;;;;;;;23.20;11.18;;;4.70;99.90;;;;;;5070827;28;20069;-73
2021/04/23 07:04:46;;;;;;;14.07;8.27;;;4.90;99.90;;;;;;5072062;28;20402;-73
2021/04/23 07:07:13;;;;;;;19.08;8.00;;;5.00;97.20;;;;;;5075476;28;20028;-74
2021/04/23 07:09:38;;;;;;;35.03;14.60;;;5.20;95.00;;;;;;5075803;28;20021;-74
2021/04/23 07:12:06;;;;;;;13.45;7.53;;;5.40;96.10;;;;;;5075818;28;20481;-74
2021/04/23 07:14:31;;;;;;;15.60;7.25;;;5.50;89.40;;;;;;5074473;28;20492;-74
2021/04/23 07:16:57;;;;;;;13.30;7.70;;;5.40;87.60;;;;;;5075653;28;20028;-74
2021/04/23 07:19:23;;;;;;;17.20;6.70;;;5.40;83.70;;;;;;5075799;28;20021;-74
2021/04/23 07:21:48;;;;;;;14.85;7.10;;;5.50;87.70;;;;;;5075615;28;20070;-74
2021/04/23 07:24:14;;;;;;;14.85;9.40;;;5.50;84.40;;;;;;5075509;28;20040;-74
2021/04/23 07:26:40;;;;;;;13.05;7.57;;;5.60;84.20;;;;;;5074386;28;20477;-74
2021/04/23 07:29:05;;;;;;;11.57;6.95;;;5.80;86.40;;;;;;5075666;28;20024;-75
2021/04/23 07:31:31;;;;;;;14.98;7.65;;;5.80;81.80;;;;;;5075173;28;20070;-74
2021/04/23 07:33:57;;;;;;;13.52;7.22;;;6.10;82.90;;;;;;5074084;28;20604;-74
2021/04/23 07:36:24;;;;;;;12.25;6.32;;;6.50;80.80;;;;;;5075293;28;20020;-74
2021/04/23 07:38:50;;;;;;;16.48;7.43;;;6.50;75.40;;;;;;5073904;28;20044;-74
2021/04/23 07:41:16;;;;;;;11.95;7.57;;;6.50;75.70;;;;;;5075200;28;20424;-74
2021/04/23 07:43:41;;;;;;;11.20;6.85;;;6.60;75.30;;;;;;5075204;28;20030;-74
2021/04/23 07:46:07;;;;;;;9.32;6.07;;;6.70;74.50;;;;;;5073741;28;20048;-74
2021/04/23 07:48:33;;;;;;;11.57;6.78;;;6.90;72.70;;;;;;5075352;28;20406;-75
2021/04/23 07:51:00;;;;;;;10.20;6.85;;;7.00;72.30;;;;;;5075384;28;20436;-75
2021/04/23 07:53:26;;;;;;;15.57;7.15;;;6.90;74.00;;;;;;5075220;28;20466;-74
2021/04/23 07:55:51;;;;;;;10.98;6.15;;;6.90;71.30;;;;;;5075273;28;20035;-74
2021/04/23 07:58:17;;;;;;;16.27;6.50;;;7.10;67.70;;;;;;5073554;28;20115;-74
2021/04/23 08:00:43;;;;;;;9.05;5.13;;;7.40;65.10;;;;;;5075215;28;20027;-74
2021/04/23 08:03:09;;;;;;;12.15;6.90;;;7.50;63.70;;;;;;5074892;28;20020;-74
2021/04/23 08:05:35;;;;;;;12.10;6.35;;;7.40;65.80;;;;;;5073557;28;20478;-74
2021/04/23 08:08:01;;;;;;;9.85;6.40;;;7.10;66.30;;;;;;5074916;28;20104;-74
2021/04/23 08:10:28;;;;;;;11.00;6.55;;;6.80;67.40;;;;;;5074866;28;20016;-74
2021/04/23 08:12:54;;;;;;;13.32;7.00;;;6.60;69.30;;;;;;5074552;28;20103;-75
2021/04/23 08:15:23;;;;;;;7.95;5.38;;;6.80;67.60;;;;;;5073451;28;20027;-75
2021/04/23 08:17:49;;;;;;;15.45;6.10;;;7.10;66.90;;;;;;5073569;28;20390;-75
2021/04/23 08:20:15;;;;;;;10.30;6.38;;;7.00;64.10;;;;;;5074342;28;20021;-74
2021/04/23 08:22:41;;;;;;;27.05;20.83;;;7.00;64.10;;;;;;5074498;28;20145;-75
2021/04/23 08:25:09;;;;;;;11.82;6.82;;;7.20;65.10;;;;;;5074539;28;20501;-75
2021/04/23 08:27:35;;;;;;;18.88;8.55;;;7.00;63.40;;;;;;5073246;28;20028;-75
2021/04/23 08:30:03;;;;;;;10.23;5.90;;;7.00;64.70;;;;;;5074599;28;20413;-74
2021/04/23 08:32:30;;;;;;;10.80;6.05;;;6.90;63.70;;;;;;5074240;28;20029;-74
2021/04/23 08:34:55;;;;;;;12.25;6.80;;;6.80;65.00;;;;;;5073160;28;20424;-75
2021/04/23 08:37:21;;;;;;;21.63;7.85;;;6.90;65.70;;;;;;5074241;28;20151;-75
2021/04/23 08:39:47;;;;;;;15.00;5.82;;;7.30;66.00;;;;;;5072846;28;20104;-75
2021/04/23 08:42:12;;;;;;;13.68;6.68;;;7.40;62.50;;;;;;5073017;28;20246;-74
2021/04/23 08:44:38;;;;;;;17.65;8.77;;;7.90;60.70;;;;;;5074103;28;20032;-75
2021/04/23 08:47:05;;;;;;;32.85;13.63;;;8.40;60.10;;;;;;5072757;28;20024;-75
2021/04/23 08:49:31;;;;;;;20.85;9.38;;;8.70;57.70;;;;;;5072938;28;20013;-75
2021/04/23 08:51:57;;;;;;;11.13;6.10;;;8.70;56.80;;;;;;5073848;28;20055;-75
2021/04/23 08:54:26;;;;;;;22.60;9.55;;;9.00;55.90;;;;;;5073875;28;20017;-75
2021/04/23 08:56:52;;;;;;;6.82;5.03;;;9.10;53.40;;;;;;5072674;28;20116;-75
2021/04/23 08:59:18;;;;;;;11.55;5.10;;;8.80;51.70;;;;;;5074235;28;20440;-75
2021/04/23 09:01:45;;;;;;;8.18;5.07;;;8.40;51.20;;;;;;5072418;28;20021;-75
2021/04/23 09:04:12;;;;;;;8.77;5.45;;;8.00;52.00;;;;;;5073463;28;20486;-75
2021/04/23 09:06:37;;;;;;;7.82;4.55;;;7.70;54.60;;;;;;5073594;28;20044;-75
2021/04/23 09:09:07;;;;;;;28.65;14.68;;;7.40;55.90;;;;;;5073542;28;20060;-75
2021/04/23 09:11:41;;;;;;;14.20;6.53;;;7.30;59.00;;;;;;5072250;28;20024;-74
2021/04/23 09:14:13;;;;;;;20.88;10.60;;;7.00;63.20;;;;;;5073582;28;20025;-74
2021/04/23 09:16:52;;;;;;;10.07;6.85;;;6.80;69.30;;;;;;5073459;28;20017;-74
2021/04/23 09:19:29;;;;;;;15.05;7.15;;;6.80;70.00;;;;;;5073465;28;20385;-74
2021/04/23 09:21:57;;;;;;;13.93;8.23;;;7.00;75.10;;;;;;5072964;28;20092;-74
2021/04/23 09:24:27;;;;;;;12.57;7.57;;;7.40;71.10;;;;;;5073502;28;20119;-75
2021/04/23 09:26:54;;;;;;;17.50;9.77;;;7.70;68.90;;;;;;5072461;28;20039;-74
2021/04/23 09:29:33;;;;;;;27.48;15.43;;;8.00;65.80;;;;;;5072600;28;20424;-75
2021/04/23 09:32:21;;;;;;;53.25;24.50;;;8.30;61.50;;;;;;5070581;28;20150;-75
2021/04/23 09:35:10;;;;;;;17.45;8.30;;;8.20;57.80;;;;;;5073349;28;20052;-75
2021/04/23 09:37:48;;;;;;;10.68;4.85;;;8.20;58.20;;;;;;5071983;28;20013;-75
2021/04/23 09:40:30;;;;;;;9.15;5.47;;;7.90;57.70;;;;;;5073302;28;20031;-75
2021/04/23 09:43:00;;;;;;;6.25;4.25;;;7.40;58.10;;;;;;5073177;28;20017;-74
2021/04/23 09:45:32;;;;;;;7.85;4.80;;;7.00;58.90;;;;;;5073091;28;20047;-74
2021/04/23 09:47:58;;;;;;;7.82;4.32;;;6.70;62.20;;;;;;5071803;28;20028;-75
2021/04/23 09:50:36;;;;;;;9.77;5.75;;;6.30;63.50;;;;;;5073220;28;20043;-75
2021/04/23 09:53:03;;;;;;;77.32;33.70;;;6.10;67.80;;;;;;5071680;28;20028;-74
2021/04/23 09:55:31;;;;;;;65.78;30.20;;;6.00;73.90;;;;;;5071751;28;20024;-74
2021/04/23 09:58:06;;;;;;;12.15;7.20;;;5.90;82.80;;;;;;5073020;28;20051;-74
2021/04/23 10:00:38;;;;;;;16.60;9.20;;;5.70;84.30;;;;;;5072958;28;20021;-75
2021/04/23 10:03:05;;;;;;;13.85;7.85;;;5.40;90.80;;;;;;5072961;28;20047;-74
2021/04/23 10:05:33;;;;;;;9.25;5.88;;;5.40;99.90;;;;;;5072816;28;20036;-74
2021/04/23 10:08:00;;;;;;;7.20;5.05;;;5.10;99.90;;;;;;5072886;28;20020;-75
2021/04/23 10:10:26;;;;;;;11.18;5.85;;;4.70;98.70;;;;;;5072907;28;20494;-75
2021/04/23 10:13:16;;;;;;;11.68;6.60;;;4.80;98.90;;;;;;5072793;28;20588;-75
2021/04/23 10:15:43;;;;;;;10.68;5.18;;;5.00;99.90;;;;;;5072845;28;20429;-74
2021/04/23 10:18:14;;;;;;;8.65;5.20;;;5.40;99.90;;;;;;5072948;28;20012;-75
2021/04/23 10:20:49;;;;;;;7.38;4.07;;;5.70;99.90;;;;;;5071489;28;20025;-75
2021/04/23 10:23:17;;;;;;;11.57;5.53;;;5.80;96.50;;;;;;5071397;28;20031;-75
2021/04/23 10:25:44;;;;;;;9.20;5.43;;;6.20;99.40;;;;;;5072420;28;20029;-75
2021/04/23 10:28:12;;;;;;;9.60;6.22;;;6.50;98.10;;;;;;5072561;28;20027;-75
2021/04/23 10:30:43;;;;;;;11.10;4.80;;;6.90;98.70;;;;;;5072595;28;20036;-75
2021/04/23 10:33:11;;;;;;;8.70;5.35;;;7.00;85.10;;;;;;5071332;28;20052;-75
2021/04/23 10:35:39;;;;;;;11.32;7.03;;;7.00;83.40;;;;;;5072608;28;20048;-75
2021/04/23 10:38:10;;;;;;;9.73;5.28;;;7.20;83.70;;;;;;5072498;28;20389;-75
2021/04/23 10:40:37;;;;;;;7.72;4.95;;;7.40;79.30;;;;;;5072170;28;20376;-75
2021/04/23 10:43:16;;;;;;;9.65;5.15;;;7.30;70.60;;;;;;5076598;28;20039;-75
2021/04/23 10:45:46;;;;;;;8.90;4.95;;;7.10;68.70;;;;;;5075319;28;20036;-75
2021/04/23 10:48:11;;;;;;;25.27;10.63;;;7.10;69.70;;;;;;5076453;28;20021;-75
2021/04/23 10:50:39;;;;;;;61.28;26.25;;;7.40;72.30;;;;;;5075766;28;20099;-75
2021/04/23 10:53:10;;;;;;;15.93;7.95;;;7.50;67.10;;;;;;5065214;28;20021;-75
2021/04/23 10:55:40;;;;;;;9.77;6.40;;;7.80;69.70;;;;;;5076401;28;20025;-75
2021/04/23 10:58:07;;;;;;;22.30;11.48;;;7.90;71.30;;;;;;5076375;28;20036;-75
2021/04/23 11:00:39;;;;;;;42.95;16.52;;;8.10;70.90;;;;;;5075007;28;20478;-75
2021/04/23 11:03:29;;;;;;;13.73;6.27;;;8.20;68.40;;;;;;5074917;28;20158;-75
2021/04/23 11:05:59;;;;;;;13.68;6.60;;;8.20;64.40;;;;;;5065040;28;20079;-75
2021/04/23 11:08:26;;;;;;;358.45;128.60;;;8.00;64.60;;;;;;5063429;28;20017;-75
2021/04/23 11:11:13;;;;;;;197.35;68.05;;;7.20;75.40;;;;;;5065103;28;20028;-75
2021/04/23 11:13:46;;;;;;;280.65;99.88;;;5.80;87.30;;;;;;5064288;28;20033;-74
2021/04/23 11:16:27;;;;;;;157.63;54.83;;;4.90;97.20;;;;;;5063326;28;20017;-75
2021/04/23 11:18:59;;;;;;;232.80;69.28;;;4.50;99.90;;;;;;5064486;28;20078;-75
2021/04/23 11:21:31;;;;;;;122.03;37.15;;;4.40;99.90;;;;;;5063182;28;20023;-74
2021/04/23 11:24:14;;;;;;;41.72;13.32;;;4.50;99.90;;;;;;5064995;28;20054;-74
2021/04/23 11:27:03;;;;;;;44.75;16.70;;;4.70;99.90;;;;;;5065244;28;20063;-75
2021/04/23 11:29:35;;;;;;;43.00;15.90;;;4.80;99.90;;;;;;5061928;28;20436;-75
2021/04/23 11:32:16;;;;;;;37.92;12.68;;;5.00;99.90;;;;;;5056813;28;20021;-75
2021/04/23 11:34:46;;;;;;;62.10;26.55;;;5.20;99.90;;;;;;5054326;28;20082;-75
2021/04/23 11:37:16;;;;;;;85.75;34.42;;;5.20;99.90;;;;;;5055430;28;20045;-75
2021/04/23 11:39:49;;;;;;;28.13;13.93;;;5.30;99.90;;;;;;5054271;28;20107;-74
2021/04/23 11:42:40;;;;;;;30.02;11.98;;;5.30;99.90;;;;;;5055523;28;20104;-75
2021/04/23 11:45:10;;;;;;;54.90;19.38;;;5.40;95.10;;;;;;5055417;28;20389;-75
2021/04/23 11:47:41;;;;;;;38.17;14.40;;;5.40;97.70;;;;;;5055398;28;20021;-75
2021/04/23 11:50:26;;;;;;;24.38;11.55;;;5.60;99.90;;;;;;5055388;28;20017;-75
2021/04/23 11:52:57;;;;;;;27.15;11.85;;;5.70;99.20;;;;;;5055165;28;20032;-77
2021/04/23 11:55:32;;;;;;;23.73;10.25;;;5.80;92.10;;;;;;5055259;28;20035;-75
2021/04/23 11:58:03;;;;;;;22.90;10.85;;;5.90;89.40;;;;;;5055229;28;20025;-75
2021/04/23 12:00:31;;;;;;;15.15;7.07;;;6.10;93.20;;;;;;5053910;28;20025;-75
2021/04/23 12:02:58;;;;;;;24.88;9.35;;;6.10;89.60;;;;;;5055046;28;20028;-75
2021/04/23 12:05:30;;;;;;;22.15;8.18;;;6.50;91.80;;;;;;5056124;28;20043;-75
2021/04/23 12:08:01;;;;;;;17.45;8.93;;;6.90;91.50;;;;;;5057481;28;20034;-75
2021/04/23 12:10:28;;;;;;;17.13;8.80;;;7.30;91.50;;;;;;5060234;28;20024;-75
2021/04/23 12:12:54;;;;;;;20.42;8.65;;;7.40;80.60;;;;;;5054868;28;20025;-75
2021/04/23 12:15:32;;;;;;;29.27;11.25;;;7.70;81.10;;;;;;5056180;28;20017;-75
2021/04/23 12:18:01;;;;;;;50.58;16.48;;;8.10;76.10;;;;;;5054409;28;20116;-75
2021/04/23 12:20:40;;;;;;;10.35;5.50;;;7.90;73.50;;;;;;5074758;28;20025;-75
2021/04/23 12:23:10;;;;;;;8.07;4.82;;;7.10;74.70;;;;;;5059866;28;20386;-75
2021/04/23 12:25:39;;;;;;;16.23;8.32;;;6.10;81.60;;;;;;5053060;28;20466;-75
2021/04/23 12:28:34;;;;;;;10.77;6.43;;;5.60;88.10;;;;;;5053294;28;20029;-75
2021/04/23 12:31:08;;;;;;;14.20;7.78;;;5.30;96.20;;;;;;5054848;28;20035;-75
2021/04/23 12:33:42;;;;;;;11.40;5.78;;;5.00;99.90;;;;;;5067988;28;20028;-75
2021/04/23 12:36:29;;;;;;;12.63;6.40;;;4.80;99.90;;;;;;5071068;28;20039;-75
2021/04/23 12:39:19;;;;;;;25.60;11.60;;;4.70;99.90;;;;;;5066653;28;20025;-75
2021/04/23 12:42:01;;;;;;;12.98;7.20;;;4.80;99.90;;;;;;5063357;28;20017;-75
2021/04/23 12:44:32;;;;;;;19.83;10.52;;;4.70;99.90;;;;;;5059577;28;20041;-76
2021/04/23 12:47:01;;;;;;;40.08;16.25;;;4.80;99.90;;;;;;5054351;28;20412;-75
2021/04/23 12:49:30;;;;;;;37.10;13.45;;;4.80;99.90;;;;;;5052975;28;20028;-76